Time;durP1;ratioP1;P1;durP2;ratioP2;P2;SDS_P1;SDS_P2;PMS_P1;PMS_P2;Temp;Humidity;BMP_temperature;BMP_pressure;BME280_temperature;BME280_humidity;BME280_pressure;Samples;Min_cycle;Max_cycle;Signal;HPM_P1;HPM_P2
2021/05/28 00:00:49;;;;;;;3.63;2.35;;;;;;;7.71;100.00;101954.91;4984479;28;20488;-75
2021/05/28 00:03:15;;;;;;;3.25;2.30;;;;;;;7.68;100.00;101961.13;4989731;28;20066;-75
2021/05/28 00:05:40;;;;;;;8.27;2.53;;;;;;;7.80;100.00;101959.53;4964551;28;20121;-75
2021/05/28 00:08:06;;;;;;;4.20;2.67;;;;;;;7.85;100.00;101957.44;4986179;28;20038;-75
2021/05/28 00:10:31;;;;;;;5.15;2.50;;;;;;;7.87;100.00;101954.75;4986127;28;20042;-75
2021/05/28 00:12:58;;;;;;;5.32;2.92;;;;;;;7.91;100.00;101964.03;4961429;28;20030;-75
2021/05/28 00:15:24;;;;;;;8.05;3.10;;;;;;;7.90;100.00;101972.84;4969669;28;20703;-75
2021/05/28 00:17:49;;;;;;;9.13;2.92;;;;;;;7.98;100.00;101981.00;4996018;28;20038;-75
2021/05/28 00:20:16;;;;;;;7.75;3.08;;;;;;;7.93;100.00;101983.06;4970690;28;20031;-75
2021/05/28 00:22:42;;;;;;;4.25;2.85;;;;;;;7.94;100.00;101984.75;4984987;28;20043;-75
2021/05/28 00:25:09;;;;;;;4.05;3.50;;;;;;;7.97;100.00;101989.81;4967176;28;20043;-75
2021/05/28 00:27:36;;;;;;;5.88;3.42;;;;;;;8.04;100.00;101990.22;4986768;28;20046;-75
2021/05/28 00:30:06;;;;;;;6.90;3.35;;;;;;;8.05;100.00;101984.06;4991383;28;20084;-75
2021/05/28 00:32:32;;;;;;;11.23;3.70;;;;;;;8.06;100.00;101989.22;4982400;28;20050;-75
2021/05/28 00:34:57;;;;;;;8.30;3.33;;;;;;;8.20;100.00;101988.28;4952536;28;20133;-75
2021/05/28 00:37:23;;;;;;;5.38;3.70;;;;;;;8.15;100.00;101987.75;4969226;28;20038;-75
2021/05/28 00:39:49;;;;;;;7.93;3.55;;;;;;;8.12;100.00;101995.81;4969579;28;20066;-75
2021/05/28 00:42:14;;;;;;;8.27;3.92;;;;;;;8.10;100.00;101997.66;4982124;28;20042;-75
2021/05/28 00:44:41;;;;;;;6.30;3.78;;;;;;;8.01;100.00;101995.66;4987894;28;20072;-74
2021/05/28 00:47:07;;;;;;;8.93;3.83;;;;;;;7.93;100.00;101993.53;4987520;28;20041;-74
2021/05/28 00:49:33;;;;;;;8.57;4.47;;;;;;;7.91;100.00;101998.00;4979805;28;20072;-74
2021/05/28 00:51:59;;;;;;;6.40;3.72;;;;;;;7.90;100.00;102005.03;4984085;28;20128;-74
2021/05/28 00:54:25;;;;;;;7.80;3.92;;;;;;;7.88;100.00;101999.06;4989021;28;20038;-75
2021/05/28 00:56:51;;;;;;;11.40;4.75;;;;;;;7.80;100.00;102004.78;4972659;28;20034;-75
2021/05/28 00:59:19;;;;;;;11.30;4.72;;;;;;;7.73;100.00;102011.31;4983141;28;20058;-76
2021/05/28 01:01:46;;;;;;;10.43;4.90;;;;;;;7.62;100.00;102005.94;4968094;28;20065;-75
2021/05/28 01:04:12;;;;;;;12.35;4.95;;;;;;;7.66;100.00;102017.03;4968377;28;20041;-75
2021/05/28 01:06:38;;;;;;;11.63;4.60;;;;;;;7.63;100.00;102014.59;4982907;28;20468;-75
2021/05/28 01:09:08;;;;;;;8.43;4.30;;;;;;;7.53;100.00;102024.78;4984100;28;20039;-75
2021/05/28 01:11:36;;;;;;;14.77;4.50;;;;;;;7.50;100.00;102025.00;5000738;28;20049;-75
2021/05/28 01:14:02;;;;;;;9.95;4.70;;;;;;;7.49;100.00;102029.34;4968398;28;20409;-75
2021/05/28 01:16:28;;;;;;;9.23;5.10;;;;;;;7.46;100.00;102031.31;4978939;28;20068;-75
2021/05/28 01:18:53;;;;;;;10.35;5.05;;;;;;;7.46;100.00;102032.16;4985291;28;20145;-75
2021/05/28 01:21:20;;;;;;;13.23;5.45;;;;;;;7.42;100.00;102033.25;4979711;28;20412;-75
2021/05/28 01:23:46;;;;;;;9.20;5.78;;;;;;;7.35;100.00;102029.38;5003850;28;20169;-75
2021/05/28 01:26:12;;;;;;;9.32;5.30;;;;;;;7.31;100.00;102038.31;4995485;28;20480;-75
2021/05/28 01:28:37;;;;;;;13.13;5.43;;;;;;;7.25;100.00;102044.72;4969309;28;20026;-76
2021/05/28 01:31:03;;;;;;;8.25;5.03;;;;;;;7.19;100.00;102043.34;4984275;28;20119;-75
2021/05/28 01:33:30;;;;;;;13.35;5.07;;;;;;;7.20;100.00;102046.81;5002927;28;20420;-75
2021/05/28 01:35:58;;;;;;;10.27;5.43;;;;;;;7.22;100.00;102040.56;4983777;28;20117;-75
2021/05/28 01:38:24;;;;;;;14.93;6.40;;;;;;;7.19;100.00;102050.31;4967745;28;20039;-76
2021/05/28 01:40:51;;;;;;;14.52;6.70;;;;;;;7.19;100.00;102048.56;4973480;28;20482;-75
2021/05/28 01:43:16;;;;;;;14.85;7.00;;;;;;;7.17;100.00;102049.59;4986649;28;20092;-76
2021/05/28 01:45:42;;;;;;;13.60;6.85;;;;;;;7.14;100.00;102047.16;4988590;28;20459;-76
2021/05/28 01:48:08;;;;;;;13.57;6.97;;;;;;;7.11;100.00;102061.22;4953522;28;20034;-75
2021/05/28 01:50:43;;;;;;;14.07;7.20;;;;;;;7.08;100.00;102060.56;4983596;28;20364;-76
2021/05/28 01:53:11;;;;;;;13.25;6.88;;;;;;;7.04;100.00;102059.91;4997401;28;20037;-75
2021/05/28 01:55:37;;;;;;;14.65;7.05;;;;;;;7.09;100.00;102063.09;5007382;28;20380;-75
2021/05/28 01:58:12;;;;;;;12.07;6.68;;;;;;;7.04;100.00;102064.31;4990779;28;20034;-76
2021/05/28 02:00:38;;;;;;;11.05;6.90;;;;;;;7.01;100.00;102068.78;4976519;28;22249;-75
2021/05/28 02:03:04;;;;;;;13.85;7.07;;;;;;;7.04;100.00;102059.91;4989451;28;20034;-76
2021/05/28 02:05:31;;;;;;;19.15;7.05;;;;;;;6.99;100.00;102065.41;4974773;28;20061;-75
2021/05/28 02:07:57;;;;;;;13.60;6.60;;;;;;;6.92;100.00;102065.88;4984036;28;20030;-75
2021/05/28 02:10:22;;;;;;;15.13;7.07;;;;;;;6.88;100.00;102067.81;4989843;28;20045;-75
2021/05/28 02:12:49;;;;;;;14.23;7.30;;;;;;;6.88;100.00;102069.59;4975994;28;20043;-75
2021/05/28 02:15:15;;;;;;;12.10;7.50;;;;;;;6.83;100.00;102069.84;4969310;28;20120;-75
2021/05/28 02:17:41;;;;;;;16.90;7.40;;;;;;;6.78;100.00;102072.75;4971333;28;20033;-75
2021/05/28 02:20:07;;;;;;;15.35;7.43;;;;;;;6.79;100.00;102074.41;4965757;28;20118;-75
2021/05/28 02:22:33;;;;;;;14.43;7.70;;;;;;;6.83;100.00;102075.91;4973809;28;20076;-75
2021/05/28 02:24:59;;;;;;;18.58;7.90;;;;;;;6.83;100.00;102080.28;4991914;28;20662;-75
2021/05/28 02:27:25;;;;;;;20.98;8.60;;;;;;;6.80;100.00;102088.31;4990956;28;20052;-76
2021/05/28 02:29:51;;;;;;;18.50;8.18;;;;;;;6.76;100.00;102085.03;4986426;28;20093;-75
2021/05/28 02:32:17;;;;;;;17.20;7.95;;;;;;;6.74;100.00;102089.50;4990514;28;20104;-76
2021/05/28 02:34:42;;;;;;;15.80;7.82;;;;;;;6.75;100.00;102091.16;4999752;28;20560;-75
2021/05/28 02:37:08;;;;;;;14.35;8.20;;;;;;;6.73;100.00;102093.03;4975291;28;20034;-75
2021/05/28 02:39:33;;;;;;;15.93;7.65;;;;;;;6.65;100.00;102092.63;4990459;28;20038;-75
2021/05/28 02:41:59;;;;;;;13.32;8.15;;;;;;;6.64;100.00;102088.31;4987281;28;20054;-75
2021/05/28 02:44:25;;;;;;;20.73;8.18;;;;;;;6.65;100.00;102089.16;4978210;28;20046;-76
2021/05/28 02:46:51;;;;;;;24.13;7.85;;;;;;;6.54;100.00;102089.78;4974062;28;20488;-75
2021/05/28 02:49:16;;;;;;;12.55;7.38;;;;;;;6.52;100.00;102100.31;4980891;28;20092;-74
2021/05/28 02:51:42;;;;;;;15.32;7.38;;;;;;;6.51;100.00;102103.81;4989892;28;20648;-75
2021/05/28 02:54:07;;;;;;;13.40;7.95;;;;;;;6.50;100.00;102102.16;4990828;28;20061;-75
2021/05/28 02:56:33;;;;;;;16.73;7.68;;;;;;;6.45;100.00;102104.19;4989485;28;20116;-76
2021/05/28 02:58:59;;;;;;;16.17;8.07;;;;;;;6.43;100.00;102112.06;4989399;28;20493;-75
2021/05/28 03:01:24;;;;;;;22.55;7.80;;;;;;;6.40;100.00;102119.22;4988271;28;20065;-76
2021/05/28 03:03:50;;;;;;;15.48;8.13;;;;;;;6.49;100.00;102121.31;4988908;28;20049;-75
2021/05/28 03:06:15;;;;;;;14.05;7.60;;;;;;;6.52;100.00;102123.75;4988001;28;20467;-75
2021/05/28 03:08:41;;;;;;;21.13;8.25;;;;;;;6.44;100.00;102123.34;4977228;28;20178;-75
2021/05/28 03:11:07;;;;;;;24.42;9.90;;;;;;;6.51;100.00;102132.50;4989568;28;20046;-75
2021/05/28 03:13:32;;;;;;;16.50;7.70;;;;;;;6.57;100.00;102134.78;4989768;28;20436;-75
2021/05/28 03:15:58;;;;;;;14.73;8.13;;;;;;;6.60;100.00;102131.16;4990489;28;20038;-75
2021/05/28 03:18:33;;;;;;;24.85;8.63;;;;;;;6.56;100.00;102146.13;4990233;28;20037;-75
2021/05/28 03:22:31;;;;;;;20.40;9.00;;;;;;;6.59;100.00;102139.88;4988605;28;20038;-74
2021/05/28 03:23:54;;;;;;;14.02;8.35;;;;;;;6.58;100.00;102148.66;4962439;28;20054;-74
2021/05/28 03:26:21;;;;;;;22.63;8.93;;;;;;;6.72;100.00;102151.28;4955393;28;20046;-74
2021/05/28 03:28:46;;;;;;;21.40;8.30;;;;;;;6.72;100.00;102147.84;4972060;28;20138;-74
2021/05/28 03:31:12;;;;;;;13.60;8.63;;;;;;;6.73;100.00;102160.00;4986747;28;20050;-75
2021/05/28 03:33:38;;;;;;;15.77;8.63;;;;;;;6.83;100.00;102161.13;4984060;28;20035;-74
2021/05/28 03:36:05;;;;;;;18.48;9.23;;;;;;;6.85;100.00;102161.06;4983052;28;20051;-74
2021/05/28 03:38:31;;;;;;;21.13;8.63;;;;;;;6.97;100.00;102161.19;4971419;28;20033;-75
2021/05/28 03:40:56;;;;;;;19.00;7.95;;;;;;;6.97;100.00;102157.75;4970330;28;20047;-75
2021/05/28 03:43:22;;;;;;;14.07;8.15;;;;;;;7.01;100.00;102162.69;4985719;28;20048;-74
2021/05/28 03:45:47;;;;;;;16.13;8.10;;;;;;;7.04;100.00;102158.22;4988781;28;20042;-76
2021/05/28 03:48:13;;;;;;;14.77;8.40;;;;;;;7.14;100.00;102167.19;4988138;28;20042;-75
2021/05/28 03:50:38;;;;;;;16.48;8.10;;;;;;;7.15;100.00;102167.09;4981685;28;20035;-75
2021/05/28 03:53:04;;;;;;;16.23;8.38;;;;;;;7.17;100.00;102161.78;4992619;28;20485;-75
2021/05/28 03:55:29;;;;;;;19.45;8.38;;;;;;;7.16;100.00;102160.13;4971287;28;20133;-75
2021/05/28 03:57:55;;;;;;;15.85;7.53;;;;;;;7.20;100.00;102153.78;4975150;28;20043;-75
2021/05/28 04:00:22;;;;;;;15.18;7.32;;;;;;;7.31;100.00;102159.22;4970263;28;20089;-75
2021/05/28 04:02:47;;;;;;;13.98;7.32;;;;;;;7.30;100.00;102162.75;4977688;28;20037;-75
2021/05/28 04:05:15;;;;;;;11.43;6.82;;;;;;;7.21;100.00;102171.97;4987211;28;20042;-75
2021/05/28 04:07:41;;;;;;;13.32;7.22;;;;;;;7.13;100.00;102161.13;4971822;28;20074;-75
2021/05/28 04:10:07;;;;;;;11.98;7.05;;;;;;;7.11;100.00;102159.56;4977748;28;20125;-75
2021/05/28 04:12:34;;;;;;;14.88;7.15;;;;;;;7.11;100.00;102170.00;4978584;28;20042;-75
2021/05/28 04:14:59;;;;;;;14.63;7.60;;;;;;;7.14;100.00;102159.34;4989397;28;20038;-75
2021/05/28 04:17:25;;;;;;;14.02;7.00;;;;;;;7.09;100.00;102167.47;4984792;28;20139;-74
2021/05/28 04:19:51;;;;;;;19.83;7.03;;;;;;;7.11;100.00;102163.00;4961556;28;20026;-74
2021/05/28 04:22:16;;;;;;;19.10;6.97;;;;;;;7.09;100.00;102166.63;4987751;28;20050;-75
2021/05/28 04:24:42;;;;;;;12.48;6.68;;;;;;;7.14;100.00;102165.44;4971627;28;20049;-75
2021/05/28 04:27:07;;;;;;;17.00;7.65;;;;;;;7.28;100.00;102163.78;4978411;28;20039;-74
2021/05/28 04:29:33;;;;;;;11.43;7.30;;;;;;;7.26;100.00;102166.47;4976922;28;20031;-75
2021/05/28 04:31:59;;;;;;;13.60;6.82;;;;;;;7.24;100.00;102160.50;4985004;28;20042;-75
2021/05/28 04:34:24;;;;;;;13.35;7.30;;;;;;;7.23;100.00;102174.47;4972318;28;20062;-75
2021/05/28 04:36:50;;;;;;;15.50;6.85;;;;;;;7.18;100.00;102174.75;4970870;28;20126;-74
2021/05/28 04:39:15;;;;;;;17.10;7.78;;;;;;;7.23;100.00;102177.09;4986387;28;20035;-74
2021/05/28 04:41:41;;;;;;;10.30;6.82;;;;;;;7.28;100.00;102177.66;4985813;28;20129;-74
2021/05/28 04:44:07;;;;;;;10.13;6.60;;;;;;;7.34;100.00;102179.06;4988530;28;20605;-73
2021/05/28 04:46:33;;;;;;;18.13;7.50;;;;;;;7.49;100.00;102177.34;4986761;28;20034;-74
2021/05/28 04:48:59;;;;;;;21.98;7.70;;;;;;;7.53;100.00;102166.59;4979984;28;20048;-73
2021/05/28 04:51:24;;;;;;;15.55;7.03;;;;;;;7.54;100.00;102176.13;4981769;28;20034;-73
2021/05/28 04:53:50;;;;;;;15.23;6.93;;;;;;;7.54;100.00;102162.25;4986232;28;20042;-75
2021/05/28 04:56:16;;;;;;;13.52;6.88;;;;;;;7.57;100.00;102170.72;4980613;28;20038;-74
2021/05/28 04:58:41;;;;;;;16.80;6.72;;;;;;;7.69;100.00;102184.00;4973975;28;20591;-75
2021/05/28 05:01:07;;;;;;;11.75;6.57;;;;;;;7.79;100.00;102178.09;4980989;28;20120;-75
2021/05/28 05:03:33;;;;;;;17.27;6.93;;;;;;;7.94;100.00;102181.53;4979440;28;20034;-73
2021/05/28 05:05:58;;;;;;;14.85;7.28;;;;;;;8.08;100.00;102175.50;4979763;28;20057;-73
2021/05/28 05:08:24;;;;;;;20.55;8.68;;;;;;;8.29;100.00;102181.16;4974990;28;20136;-74
2021/05/28 05:10:49;;;;;;;16.33;8.68;;;;;;;8.34;100.00;102171.25;4988789;28;20046;-74
2021/05/28 05:13:15;;;;;;;15.90;8.25;;;;;;;8.56;100.00;102173.34;4967462;28;20234;-73
2021/05/28 05:15:41;;;;;;;14.43;8.20;;;;;;;8.59;100.00;102174.94;4995146;28;20089;-74
2021/05/28 05:18:07;;;;;;;24.38;9.60;;;;;;;8.78;100.00;102177.22;4988297;28;20034;-75
2021/05/28 05:20:34;;;;;;;15.85;8.05;;;;;;;8.87;100.00;102183.59;4969750;28;20081;-75
2021/05/28 05:23:00;;;;;;;25.27;9.73;;;;;;;9.02;100.00;102177.34;4971205;28;20137;-75
2021/05/28 05:25:26;;;;;;;22.13;9.73;;;;;;;9.20;100.00;102182.34;4969494;28;20042;-74
2021/05/28 05:27:52;;;;;;;18.60;9.40;;;;;;;9.30;100.00;102189.44;4981330;28;20041;-75
2021/05/28 05:30:18;;;;;;;20.95;9.45;;;;;;;9.39;100.00;102193.25;5005714;28;20165;-75
2021/05/28 05:32:44;;;;;;;22.00;10.65;;;;;;;9.43;100.00;102194.72;4970464;28;20392;-75
2021/05/28 05:35:10;;;;;;;26.02;10.80;;;;;;;9.51;100.00;102194.19;4984862;28;20042;-76
2021/05/28 05:37:35;;;;;;;22.80;11.30;;;;;;;9.65;100.00;102194.09;4983286;28;20023;-75
2021/05/28 05:40:01;;;;;;;21.73;8.70;;;;;;;9.83;100.00;102201.63;4975801;28;20038;-74
2021/05/28 05:42:26;;;;;;;21.00;9.40;;;;;;;9.84;100.00;102203.31;4985679;28;20038;-76
2021/05/28 05:44:52;;;;;;;19.23;9.82;;;;;;;9.96;100.00;102201.63;5003213;28;20138;-74
2021/05/28 05:47:17;;;;;;;18.75;9.63;;;;;;;10.07;99.55;102212.19;4980065;28;20070;-74
2021/05/28 05:49:43;;;;;;;17.90;9.02;;;;;;;10.17;97.90;102217.63;4973201;28;20070;-73
2021/05/28 05:52:08;;;;;;;14.45;8.68;;;;;;;10.21;98.42;102219.09;4986794;28;20066;-73
2021/05/28 05:54:35;;;;;;;17.65;8.20;;;;;;;10.33;97.77;102223.50;4985346;28;20034;-74
2021/05/28 05:57:00;;;;;;;16.23;8.55;;;;;;;10.51;97.93;102229.25;4987634;28;20058;-73
2021/05/28 05:59:28;;;;;;;11.57;6.45;;;;;;;10.30;92.69;102236.78;4989085;28;20058;-76
2021/05/28 06:01:54;;;;;;;11.65;6.43;;;;;;;10.39;93.87;102227.47;4994000;28;20053;-74
2021/05/28 06:04:20;;;;;;;13.32;6.57;;;;;;;10.32;94.98;102242.81;4982701;28;20476;-75
2021/05/28 06:06:45;;;;;;;17.35;6.80;;;;;;;10.11;94.69;102240.72;4988754;28;20049;-73
2021/05/28 06:09:11;;;;;;;14.35;6.55;;;;;;;10.03;93.82;102248.28;4983492;28;20034;-73
2021/05/28 06:11:39;;;;;;;14.07;7.18;;;;;;;9.93;95.42;102247.25;4967626;28;20034;-75
2021/05/28 06:14:08;;;;;;;13.20;7.13;;;;;;;9.92;95.92;102249.00;4986659;28;20058;-74
2021/05/28 06:16:34;;;;;;;13.40;7.32;;;;;;;9.96;96.26;102246.19;5003761;28;20046;-75
2021/05/28 06:19:00;;;;;;;12.90;6.85;;;;;;;9.96;96.39;102257.50;5002804;28;20125;-75
2021/05/28 06:21:26;;;;;;;11.80;6.85;;;;;;;9.87;93.47;102256.38;4986152;28;20117;-74
2021/05/28 06:23:51;;;;;;;9.38;6.70;;;;;;;9.91;95.44;102251.75;4979182;28;20046;-75
2021/05/28 06:26:17;;;;;;;10.13;6.43;;;;;;;9.92;92.20;102245.56;4967156;28;20038;-74
2021/05/28 06:28:42;;;;;;;11.90;6.30;;;;;;;9.89;94.40;102254.47;4970405;28;20070;-75
2021/05/28 06:31:09;;;;;;;9.80;6.53;;;;;;;9.96;96.39;102260.13;4987962;28;20080;-76
2021/05/28 06:33:35;;;;;;;11.27;6.75;;;;;;;9.95;95.16;102255.84;5004911;28;20049;-75
2021/05/28 06:36:00;;;;;;;9.27;6.68;;;;;;;9.92;94.86;102259.50;4989673;28;20053;-75
2021/05/28 06:38:26;;;;;;;13.77;6.72;;;;;;;9.83;93.90;102262.75;4982821;28;20054;-75
2021/05/28 06:40:52;;;;;;;10.60;6.57;;;;;;;9.86;95.23;102262.53;4952001;28;20089;-75
2021/05/28 06:43:17;;;;;;;10.48;7.20;;;;;;;9.96;95.76;102252.25;4988777;28;20173;-75
2021/05/28 06:45:43;;;;;;;12.27;6.53;;;;;;;10.19;94.50;102252.44;4984790;28;20038;-76
2021/05/28 06:48:09;;;;;;;14.95;6.95;;;;;;;10.25;92.34;102263.38;5006693;28;20041;-77
2021/05/28 06:50:35;;;;;;;11.35;6.22;;;;;;;10.32;91.03;102264.66;4973035;28;20039;-76
2021/05/28 06:53:00;;;;;;;13.13;6.35;;;;;;;10.34;94.34;102261.91;4971965;28;20041;-77
2021/05/28 06:55:26;;;;;;;11.30;6.30;;;;;;;10.32;91.36;102274.28;4955535;28;20045;-76
2021/05/28 06:57:52;;;;;;;14.07;6.22;;;;;;;10.30;90.90;102276.13;4963231;28;20066;-76
2021/05/28 07:00:18;;;;;;;11.70;6.55;;;;;;;10.28;93.09;102285.91;4970602;28;20057;-76
2021/05/28 07:02:44;;;;;;;14.65;7.95;;;;;;;10.25;92.95;102279.09;4971622;28;20629;-77
2021/05/28 07:05:10;;;;;;;10.18;7.22;;;;;;;10.15;93.26;102285.91;4974938;28;20053;-77
2021/05/28 07:07:35;;;;;;;15.63;7.78;;;;;;;10.14;93.23;102281.63;4971939;28;20076;-77
2021/05/28 07:10:01;;;;;;;16.23;8.10;;;;;;;10.07;94.54;102286.44;4985023;28;20484;-76
2021/05/28 07:12:27;;;;;;;22.17;8.27;;;;;;;10.04;94.52;102294.53;4948986;28;20042;-76
2021/05/28 07:14:52;;;;;;;21.05;8.98;;;;;;;10.02;95.41;102303.41;5004119;28;20122;-77
2021/05/28 07:17:18;;;;;;;23.35;8.80;;;;;;;9.85;92.55;102299.31;4991019;28;20491;-76
2021/05/28 07:19:44;;;;;;;17.13;9.55;;;;;;;9.76;95.53;102295.56;4973717;28;20406;-76
2021/05/28 07:22:09;;;;;;;19.15;9.85;;;;;;;9.67;95.42;102298.78;4991010;28;20073;-77
2021/05/28 07:24:35;;;;;;;20.45;10.63;;;;;;;9.62;97.10;102303.50;4987969;28;20030;-75
2021/05/28 07:27:00;;;;;;;21.92;10.82;;;;;;;9.57;97.22;102301.19;4998125;28;20110;-76
2021/05/28 07:29:27;;;;;;;24.17;10.60;;;;;;;9.58;95.33;102302.03;4980668;28;20034;-75
2021/05/28 07:31:53;;;;;;;19.70;10.13;;;;;;;9.62;95.06;102304.31;5009808;28;20032;-78
2021/05/28 07:34:18;;;;;;;18.88;9.60;;;;;;;9.79;96.46;102307.59;4964879;28;20042;-75
2021/05/28 07:36:44;;;;;;;23.35;9.93;;;;;;;9.87;96.31;102305.31;4989609;28;20373;-76
2021/05/28 07:39:11;;;;;;;23.98;10.13;;;;;;;9.92;94.20;102304.03;4989154;28;20046;-77
2021/05/28 07:41:37;;;;;;;20.13;10.45;;;;;;;10.03;95.45;102305.94;4989908;28;20042;-77
2021/05/28 07:44:04;;;;;;;20.55;9.93;;;;;;;10.16;93.86;102305.13;4985031;28;20042;-75
2021/05/28 07:46:30;;;;;;;18.23;9.18;;;;;;;10.19;94.46;102310.13;4985627;28;20038;-75
2021/05/28 07:48:56;;;;;;;20.48;8.85;;;;;;;10.15;93.45;102304.25;4985259;28;20038;-75
2021/05/28 07:51:21;;;;;;;19.65;9.65;;;;;;;10.19;93.80;102315.38;4985395;28;20045;-75
2021/05/28 07:53:47;;;;;;;20.67;9.20;;;;;;;10.12;91.08;102315.81;4981025;28;20574;-76
2021/05/28 07:56:12;;;;;;;17.73;8.63;;;;;;;10.06;91.80;102312.78;4984588;28;20049;-75
2021/05/28 07:58:39;;;;;;;17.58;8.93;;;;;;;10.07;91.44;102327.56;4977338;28;20038;-77
2021/05/28 08:01:05;;;;;;;21.38;8.70;;;;;;;10.08;90.80;102313.50;5005365;28;20485;-75
2021/05/28 08:03:31;;;;;;;17.15;8.48;;;;;;;10.20;93.76;102312.66;4988975;28;20045;-74
2021/05/28 08:05:56;;;;;;;16.77;8.48;;;;;;;10.39;91.00;102314.88;4958882;28;20394;-75
2021/05/28 08:08:26;;;;;;;16.00;8.43;;;;;;;10.57;89.38;102314.53;4989392;28;20034;-75
2021/05/28 08:10:52;;;;;;;18.23;8.55;;;;;;;10.83;88.16;102318.78;4951546;28;20043;-76
2021/05/28 08:13:17;;;;;;;18.33;7.65;;;;;;;11.03;86.63;102311.25;4977431;28;20175;-76
2021/05/28 08:15:43;;;;;;;16.60;8.82;;;;;;;11.13;86.89;102316.69;4970686;28;20381;-77
2021/05/28 08:18:09;;;;;;;14.98;7.80;;;;;;;11.08;84.00;102314.41;4954500;28;20034;-76
2021/05/28 08:20:34;;;;;;;13.23;7.78;;;;;;;11.10;83.52;102317.75;4953751;28;20043;-76
2021/05/28 08:23:00;;;;;;;17.83;8.40;;;;;;;11.21;88.61;102319.59;4963972;28;20133;-76
2021/05/28 08:25:29;;;;;;;15.98;8.40;;;;;;;11.29;84.29;102325.13;4989338;28;20113;-75
2021/05/28 08:27:55;;;;;;;21.65;9.00;;;;;;;11.21;84.98;102323.06;4970093;28;20035;-75
2021/05/28 08:30:21;;;;;;;16.20;8.48;;;;;;;11.38;84.65;102327.06;4960559;28;20038;-76
2021/05/28 08:32:47;;;;;;;12.88;8.15;;;;;;;11.43;84.09;102335.47;4991543;28;20041;-74
2021/05/28 08:35:14;;;;;;;13.52;7.85;;;;;;;11.59;83.03;102324.63;4955668;28;20551;-75
2021/05/28 08:37:39;;;;;;;17.25;8.40;;;;;;;11.79;82.55;102317.91;4962718;28;20041;-76
2021/05/28 08:40:06;;;;;;;17.08;7.80;;;;;;;12.02;83.24;102318.78;4989497;28;20035;-75
2021/05/28 08:42:32;;;;;;;18.08;7.55;;;;;;;12.46;81.01;102322.41;4986554;28;20034;-76
2021/05/28 08:44:58;;;;;;;18.27;8.23;;;;;;;12.71;83.85;102327.53;4960235;28;20044;-76
2021/05/28 08:47:24;;;;;;;17.80;9.23;;;;;;;12.44;83.76;102329.56;4971787;28;20034;-74
2021/05/28 08:49:51;;;;;;;19.55;8.18;;;;;;;12.40;84.14;102332.59;4969861;28;20567;-77
2021/05/28 08:52:22;;;;;;;15.32;8.20;;;;;;;12.07;83.94;102332.44;4961087;28;20031;-75
2021/05/28 08:54:49;;;;;;;14.75;7.90;;;;;;;11.84;84.06;102333.31;4949150;28;20086;-75
2021/05/28 08:57:18;;;;;;;13.57;8.80;;;;;;;11.83;84.83;102327.22;4994299;28;20600;-74
2021/05/28 08:59:44;;;;;;;16.35;7.78;;;;;;;11.94;84.52;102329.06;4984202;28;20034;-74
2021/05/28 09:02:29;;;;;;;15.15;8.02;;;;;;;12.05;81.08;102330.88;4961559;28;20111;-75
2021/05/28 09:05:05;;;;;;;17.80;8.85;;;;;;;12.52;82.08;102318.44;4971222;28;20043;-75
2021/05/28 09:07:30;;;;;;;16.55;8.45;;;;;;;13.01;82.21;102329.50;4973206;28;20041;-74
2021/05/28 09:09:56;;;;;;;13.55;7.50;;;;;;;13.06;78.11;102316.81;4971133;28;20034;-75
2021/05/28 09:12:27;;;;;;;14.65;7.78;;;;;;;12.68;80.01;102333.88;4958268;28;20142;-76
2021/05/28 09:14:53;;;;;;;13.50;8.25;;;;;;;12.38;81.93;102323.97;4956532;28;20125;-76
2021/05/28 09:17:19;;;;;;;16.33;7.97;;;;;;;12.37;81.98;102317.03;4956712;28;20054;-75
2021/05/28 09:19:54;;;;;;;18.80;9.38;;;;;;;12.52;79.28;102323.72;4972126;28;20030;-76
2021/05/28 09:22:21;;;;;;;14.70;9.02;;;;;;;12.61;78.74;102323.00;4967411;28;20050;-75
2021/05/28 09:24:46;;;;;;;13.77;7.82;;;;;;;12.73;78.74;102334.34;4973466;28;20112;-76
2021/05/28 09:27:31;;;;;;;15.23;9.30;;;;;;;12.69;79.68;102330.28;4972967;28;20054;-75
2021/05/28 09:30:05;;;;;;;22.58;10.00;;;;;;;12.82;80.47;102327.50;4978579;28;20498;-76
2021/05/28 09:32:33;;;;;;;18.10;8.85;;;;;;;12.87;79.69;102335.06;4983544;28;20042;-75
2021/05/28 09:34:59;;;;;;;14.18;8.30;;;;;;;13.01;77.14;102329.50;4994886;28;20046;-76
2021/05/28 09:37:51;;;;;;;14.95;8.65;;;;;;;13.23;80.85;102336.50;4979424;28;20038;-75
2021/05/28 09:40:19;;;;;;;13.65;7.93;;;;;;;13.18;79.43;102343.94;5000986;28;20105;-76
2021/05/28 09:43:05;;;;;;;14.70;8.00;;;;;;;13.18;76.85;102344.78;4968831;28;20050;-76
2021/05/28 09:45:35;;;;;;;10.90;7.07;;;;;;;13.37;80.06;102352.06;4992558;28;20112;-76
2021/05/28 09:48:06;;;;;;;15.18;7.57;;;;;;;13.40;80.54;102349.16;4977455;28;20420;-75
2021/05/28 09:50:33;;;;;;;15.55;7.70;;;;;;;13.24;81.18;102351.34;4986802;28;20034;-76
2021/05/28 09:53:05;;;;;;;13.05;6.97;;;;;;;13.04;78.62;102342.44;4967015;28;20498;-76
2021/05/28 09:55:35;;;;;;;15.03;7.93;;;;;;;13.27;76.91;102347.63;4969460;28;20059;-77
2021/05/28 09:58:00;;;;;;;11.45;7.57;;;;;;;13.37;77.90;102341.53;4971237;28;20342;-77
2021/05/28 10:00:35;;;;;;;13.18;8.13;;;;;;;13.58;75.32;102344.19;4958958;28;20034;-76
2021/05/28 10:03:09;;;;;;;15.88;7.18;;;;;;;14.10;72.93;102333.69;4972464;28;20214;-76
2021/05/28 10:05:38;;;;;;;14.27;7.40;;;;;;;14.25;72.39;102336.00;4985729;28;20078;-75
2021/05/28 10:08:06;;;;;;;14.25;7.00;;;;;;;14.28;73.64;102339.22;4989178;28;20056;-76
2021/05/28 10:10:32;;;;;;;17.20;7.25;;;;;;;14.35;72.35;102332.44;4974966;28;20041;-75
2021/05/28 10:12:59;;;;;;;15.77;7.68;;;;;;;14.44;72.77;102337.88;4992766;28;20034;-79
2021/05/28 10:15:25;;;;;;;18.67;7.32;;;;;;;14.59;72.88;102339.22;5010833;28;20551;-76
2021/05/28 10:17:50;;;;;;;11.57;6.65;;;;;;;14.76;75.52;102341.19;4992674;28;20133;-77
2021/05/28 10:20:16;;;;;;;13.10;6.25;;;;;;;14.88;72.60;102333.16;5007304;28;20030;-76
2021/05/28 10:22:42;;;;;;;13.02;6.32;;;;;;;14.92;71.73;102338.06;4945118;28;20104;-76
2021/05/28 10:25:08;;;;;;;13.00;6.88;;;;;;;14.64;71.17;102338.81;4991063;28;20053;-75
2021/05/28 10:27:34;;;;;;;18.73;6.85;;;;;;;14.39;73.99;102331.19;4973983;28;20043;-76
2021/05/28 10:30:11;;;;;;;14.07;6.25;;;;;;;14.36;71.94;102341.19;4993398;28;20029;-76
2021/05/28 10:32:36;;;;;;;12.68;6.15;;;;;;;14.32;72.25;102337.13;4982045;28;20542;-78
2021/05/28 10:35:09;;;;;;;12.75;6.70;;;;;;;14.32;72.09;102347.69;4990433;28;20034;-75
2021/05/28 10:37:40;;;;;;;14.82;6.28;;;;;;;14.36;72.76;102331.44;4980134;28;20039;-74
2021/05/28 10:40:29;;;;;;;16.60;6.00;;;;;;;14.72;73.04;102338.97;4952735;28;20429;-76
2021/05/28 10:43:05;;;;;;;18.58;6.72;;;;;;;14.71;70.98;102329.38;4983822;28;20249;-76
2021/05/28 10:46:02;;;;;;;14.68;5.80;;;;;;;14.93;73.18;102329.13;4973267;28;20129;-76
2021/05/28 10:48:41;;;;;;;10.93;5.30;;;;;;;15.48;70.95;102327.78;5002533;28;20037;-76
2021/05/28 10:51:13;;;;;;;14.38;6.35;;;;;;;16.03;71.69;102324.50;4970020;28;20042;-76
2021/05/28 10:53:59;;;;;;;;;;;;;;;15.98;66.55;102318.84;4975030;28;20042;-76
2021/05/28 10:56:35;;;;;;;14.68;5.95;;;;;;;15.79;70.33;102306.50;4945919;28;19952;-76
2021/05/28 10:59:11;;;;;;;15.60;5.10;;;;;;;15.55;69.27;102313.84;4997320;28;20045;-75
2021/05/28 11:01:57;;;;;;;16.15;5.32;;;;;;;15.72;67.46;102314.13;4986271;28;20057;-75
2021/05/28 11:04:29;;;;;;;14.48;5.72;;;;;;;15.79;68.64;102312.63;4985774;28;20084;-75
2021/05/28 11:06:55;;;;;;;16.65;5.40;;;;;;;15.48;69.00;102315.41;4981614;28;20042;-75
2021/05/28 11:09:49;;;;;;;16.40;5.43;;;;;;;16.24;69.80;102314.56;4973161;28;20057;-76
2021/05/28 11:12:24;;;;;;;13.95;4.95;;;;;;;16.22;69.75;102307.72;4979380;28;20030;-76
2021/05/28 11:15:04;;;;;;;13.23;5.50;;;;;;;16.13;72.78;102309.44;4999315;28;20057;-78
2021/05/28 11:17:32;;;;;;;15.05;5.85;;;;;;;15.95;67.60;102312.00;4960855;28;20125;-74
2021/05/28 11:20:04;;;;;;;18.42;6.30;;;;;;;15.67;68.43;102313.69;4973288;28;20038;-76